createdAt,value
2019-02-24T00:02:41.893Z,-0.91
2019-02-24T00:07:47.441Z,-1.04
2019-02-24T00:12:52.974Z,-1.14
2019-02-24T00:18:01.155Z,-1.05
2019-02-24T00:23:09.856Z,-1.03
2019-02-24T00:28:16.034Z,-0.96
2019-02-24T00:33:21.762Z,-0.95
2019-02-24T00:38:29.207Z,-1.01
2019-02-24T00:43:34.899Z,-1.13
2019-02-24T00:48:40.545Z,-1.22
2019-02-24T00:53:46.097Z,-0.92
2019-02-24T00:58:51.669Z,-1.09
2019-02-24T01:03:57.175Z,-1.03
2019-02-24T01:09:03.063Z,-1.03
2019-02-24T01:14:11.032Z,-0.97
2019-02-24T01:19:16.544Z,-1.05
2019-02-24T01:24:22.141Z,-0.85
2019-02-24T01:29:29.893Z,-0.97
2019-02-24T01:34:38.687Z,-1.10
2019-02-24T01:39:46.582Z,-1.05
2019-02-24T01:44:55.461Z,-1.12
2019-02-24T01:50:03.071Z,-1.19
2019-02-24T01:55:08.725Z,-1.08
2019-02-24T02:00:17.292Z,-1.11
2019-02-24T02:05:22.879Z,-0.89
2019-02-24T02:10:28.880Z,-1.17
2019-02-24T02:15:35.077Z,-0.98
2019-02-24T02:20:40.609Z,-1.22
2019-02-24T02:25:46.544Z,-1.15
2019-02-24T02:30:52.067Z,-1.44
2019-02-24T02:35:58.047Z,-1.49
2019-02-24T02:41:04.207Z,-1.47
2019-02-24T02:46:11.136Z,-1.51
2019-02-24T02:51:16.731Z,-1.57
2019-02-24T02:56:22.515Z,-1.53
2019-02-24T03:01:29.815Z,-1.48
2019-02-24T03:06:55.917Z,-1.50
2019-02-24T03:12:01.501Z,-1.51
2019-02-24T03:17:07.844Z,-1.55
2019-02-24T03:22:13.317Z,-1.59
2019-02-24T03:27:19.082Z,-1.79
2019-02-24T03:32:24.895Z,-1.83
2019-02-24T03:37:30.523Z,-1.79
2019-02-24T03:42:36.047Z,-1.82
2019-02-24T03:47:41.899Z,-1.84
2019-02-24T03:52:47.915Z,-1.84
2019-02-24T03:57:53.644Z,-1.87
2019-02-24T04:02:59.298Z,-1.82
2019-02-24T04:08:05.820Z,-1.87
2019-02-24T04:13:13.091Z,-1.98
2019-02-24T04:18:18.864Z,-1.97
2019-02-24T04:23:24.683Z,-2.14
2019-02-24T04:28:31.962Z,-2.02
2019-02-24T04:33:37.530Z,-2.05
2019-02-24T04:38:43.334Z,-2.19
2019-02-24T04:43:48.933Z,-2.02
2019-02-24T04:48:55.975Z,-2.04
2019-02-24T04:54:01.636Z,-2.21
2019-02-24T04:59:08.738Z,-2.10
2019-02-24T05:04:14.441Z,-2.11
2019-02-24T05:09:20.223Z,-2.12
2019-02-24T05:14:26.161Z,-2.16
2019-02-24T05:19:31.789Z,-2.17
2019-02-24T05:24:37.613Z,-2.49
2019-02-24T05:29:46.201Z,-2.25
2019-02-24T05:34:51.408Z,-2.20
2019-02-24T05:39:57.952Z,-2.38
2019-02-24T05:45:04.395Z,-2.35
2019-02-24T05:50:10.359Z,-2.11
2019-02-24T05:55:16.460Z,-2.16
2019-02-24T06:00:22.296Z,-2.11
2019-02-24T06:05:27.967Z,-1.90
2019-02-24T06:10:33.788Z,-1.97
2019-02-24T06:15:39.779Z,-2.03
2019-02-24T06:20:45.561Z,-1.81
2019-02-24T06:25:52.142Z,-2.00
2019-02-24T06:30:57.792Z,-1.67
2019-02-24T06:36:06.221Z,-1.93
2019-02-24T06:41:12.234Z,-1.67
2019-02-24T06:46:21.104Z,-1.45
2019-02-24T06:51:28.803Z,-1.37
2019-02-24T06:56:34.782Z,-1.18
2019-02-24T07:01:40.487Z,-1.06
2019-02-24T07:06:46.764Z,-0.94
2019-02-24T07:11:52.437Z,-0.69
2019-02-24T07:16:59.534Z,-0.63
2019-02-24T07:22:08.555Z,-0.45
2019-02-24T07:27:14.725Z,-0.33
2019-02-24T07:32:21.327Z,-0.27
2019-02-24T07:37:27.306Z,-0.12
2019-02-24T07:42:35.733Z,0.10
2019-02-24T07:47:41.273Z,0.01
2019-02-24T07:52:46.841Z,0.27
2019-02-24T07:57:52.722Z,0.04
2019-02-24T08:03:00.592Z,-0.14
2019-02-24T08:08:16.044Z,0.18
2019-02-24T08:13:14.985Z,0.19
2019-02-24T08:18:21.028Z,0.59
2019-02-24T08:23:28.234Z,0.65
2019-02-24T08:28:34.190Z,0.81
2019-02-24T08:33:41.046Z,0.87
2019-02-24T08:38:46.726Z,0.90
2019-02-24T08:43:52.935Z,1.13
2019-02-24T08:48:58.576Z,1.38
2019-02-24T08:54:04.499Z,1.42
2019-02-24T08:59:10.174Z,1.19
2019-02-24T09:04:17.966Z,1.57
2019-02-24T09:09:23.503Z,1.91
2019-02-24T09:14:29.063Z,2.20
2019-02-24T09:19:36.612Z,2.34
2019-02-24T09:24:42.013Z,1.88
2019-02-24T09:29:48.156Z,2.54
2019-02-24T09:34:53.717Z,2.73
2019-02-24T09:39:59.595Z,2.59
2019-02-24T09:45:05.869Z,3.51
2019-02-24T09:50:14.681Z,4.09
2019-02-24T09:55:20.364Z,4.38
2019-02-24T10:00:26.938Z,3.05
2019-02-24T10:05:32.635Z,3.25
2019-02-24T10:10:40.546Z,3.47
2019-02-24T10:15:46.135Z,3.54
2019-02-24T10:20:52.231Z,4.36
2019-02-24T10:25:58.825Z,4.41
2019-02-24T10:31:07.951Z,4.61
2019-02-24T10:36:13.598Z,5.02
2019-02-24T10:41:19.291Z,5.27
2019-02-24T10:46:25.028Z,5.23
2019-02-24T10:51:31.599Z,5.87
2019-02-24T10:56:38.391Z,5.87
2019-02-24T11:01:43.960Z,5.78
2019-02-24T11:06:49.947Z,6.66
2019-02-24T11:11:55.994Z,5.97
2019-02-24T11:17:05.107Z,7.06
2019-02-24T11:22:10.961Z,7.37
2019-02-24T11:27:16.884Z,7.84
2019-02-24T11:32:39.946Z,7.45
2019-02-24T11:37:47.813Z,8.09
2019-02-24T11:42:54.017Z,8.10
2019-02-24T11:48:00.300Z,7.69
2019-02-24T11:53:06.952Z,8.15
2019-02-24T11:58:13.665Z,8.05
2019-02-24T12:03:19.796Z,8.98
2019-02-24T12:08:25.707Z,8.33
2019-02-24T12:13:31.404Z,8.33
2019-02-24T12:18:39.272Z,9.06
2019-02-24T12:23:45.038Z,8.82
2019-02-24T12:28:53.989Z,8.28
2019-02-24T12:34:01.317Z,8.08
2019-02-24T12:39:07.500Z,8.04
2019-02-24T12:44:15.809Z,8.33
2019-02-24T12:49:23.463Z,8.64
2019-02-24T12:54:29.165Z,8.53
2019-02-24T12:59:35.448Z,8.36
2019-02-24T13:04:41.521Z,8.14
2019-02-24T13:09:47.469Z,8.41
2019-02-24T13:14:55.324Z,8.69
2019-02-24T13:20:01.154Z,8.83
2019-02-24T13:25:07.356Z,9.02
2019-02-24T13:30:14.910Z,8.80
2019-02-24T13:35:20.598Z,9.07
2019-02-24T13:40:29.322Z,9.38
2019-02-24T13:45:35.008Z,9.74
2019-02-24T13:50:41.159Z,9.54
2019-02-24T13:55:46.880Z,9.85
2019-02-24T14:00:54.742Z,9.94
2019-02-24T14:06:02.447Z,10.02
2019-02-24T14:11:11.315Z,9.97
2019-02-24T14:16:18.033Z,10.13
2019-02-24T14:21:23.760Z,9.80
2019-02-24T14:26:30.339Z,9.80
2019-02-24T14:31:37.027Z,10.03
2019-02-24T14:36:45.857Z,10.03
2019-02-24T14:41:51.838Z,10.29
2019-02-24T14:47:03.022Z,10.67
2019-02-24T14:52:09.666Z,9.97
2019-02-24T14:57:15.320Z,10.03
2019-02-24T15:02:21.410Z,9.29
2019-02-24T15:07:27.494Z,9.41
2019-02-24T15:12:34.313Z,9.29
2019-02-24T15:17:40.735Z,9.04
2019-02-24T15:22:47.827Z,8.78
2019-02-24T15:27:53.609Z,8.83
2019-02-24T15:32:59.913Z,8.85
2019-02-24T15:38:07.039Z,8.89
2019-02-24T15:43:14.075Z,8.64
2019-02-24T15:48:19.863Z,8.08
2019-02-24T15:53:26.188Z,7.99
2019-02-24T15:58:31.864Z,7.53
2019-02-24T16:03:41.741Z,7.51
2019-02-24T16:08:48.999Z,7.61
2019-02-24T16:13:55.191Z,7.37
2019-02-24T16:19:01.297Z,7.57
2019-02-24T16:24:12.698Z,7.13
2019-02-24T16:29:19.355Z,7.16
2019-02-24T16:34:25.145Z,6.83
2019-02-24T16:39:31.022Z,6.94
2019-02-24T16:44:39.457Z,6.74
2019-02-24T16:49:46.213Z,6.69
2019-02-24T16:54:53.254Z,6.38
2019-02-24T16:59:59.098Z,6.53
2019-02-24T17:05:07.927Z,6.31
2019-02-24T17:10:15.259Z,6.26
2019-02-24T17:15:21.295Z,5.87
2019-02-24T17:20:28.660Z,5.94
2019-02-24T17:25:36.769Z,5.73
2019-02-24T17:30:47.239Z,5.70
2019-02-24T17:35:57.879Z,5.70
2019-02-24T17:41:08.452Z,5.41
2019-02-24T17:46:18.397Z,5.33
2019-02-24T17:51:25.693Z,5.47
2019-02-24T17:56:36.542Z,5.01
2019-02-24T18:01:42.689Z,4.82
2019-02-24T18:06:49.665Z,5.03
2019-02-24T18:12:00.196Z,4.66
2019-02-24T18:17:13.930Z,4.65
2019-02-24T18:22:21.165Z,4.65
2019-02-24T18:27:27.611Z,4.52
2019-02-24T18:32:37.176Z,4.33
2019-02-24T18:37:58.713Z,4.39
2019-02-24T18:43:08.341Z,4.43
2019-02-24T18:48:15.785Z,4.20
2019-02-24T18:53:27.646Z,4.17
2019-02-24T18:58:41.361Z,4.17
2019-02-24T19:03:57.360Z,3.96
2019-02-24T19:09:01.989Z,3.99
2019-02-24T19:14:21.463Z,3.73
2019-02-24T19:19:32.794Z,3.73
2019-02-24T19:24:43.481Z,3.66
2019-02-24T19:29:56.515Z,3.66
2019-02-24T19:35:09.805Z,3.67
2019-02-24T19:40:21.276Z,3.48
2019-02-24T19:45:28.759Z,3.39
2019-02-24T19:50:41.264Z,3.44
2019-02-24T19:55:49.699Z,3.15
2019-02-24T20:01:17.846Z,3.15
2019-02-24T20:06:24.309Z,3.07
2019-02-24T20:11:31.703Z,2.79
2019-02-24T20:16:42.367Z,2.92
2019-02-24T20:21:54.197Z,2.97
2019-02-24T20:27:09.942Z,3.06
2019-02-24T20:32:18.367Z,2.79
2019-02-24T20:37:25.162Z,2.78
2019-02-24T20:42:31.668Z,2.68
2019-02-24T20:47:38.500Z,2.73
2019-02-24T20:52:45.973Z,2.68
2019-02-24T20:57:54.298Z,2.64
2019-02-24T21:03:01.620Z,2.59
2019-02-24T21:08:09.225Z,2.63
2019-02-24T21:13:16.857Z,2.44
2019-02-24T21:18:23.040Z,2.45
2019-02-24T21:23:28.833Z,2.54
2019-02-24T21:28:37.725Z,2.37
2019-02-24T21:33:44.191Z,2.25
2019-02-24T21:38:53.691Z,2.40
2019-02-24T21:44:00.511Z,2.24
2019-02-24T21:49:20.462Z,2.15
2019-02-24T21:54:27.857Z,2.17
2019-02-24T21:59:36.937Z,2.12
2019-02-24T22:04:42.109Z,1.98
2019-02-24T22:09:47.811Z,2.00
2019-02-24T22:14:55.062Z,1.93
2019-02-24T22:20:02.759Z,1.77
2019-02-24T22:25:13.280Z,1.78
2019-02-24T22:30:20.730Z,1.75
2019-02-24T22:35:26.409Z,1.83
2019-02-24T22:40:41.039Z,1.68
2019-02-24T22:45:50.135Z,1.70
2019-02-24T22:50:57.831Z,1.60
2019-02-24T22:56:03.337Z,1.68
2019-02-24T23:01:20.127Z,1.65
2019-02-24T23:06:26.791Z,1.40
2019-02-24T23:11:32.398Z,1.48
2019-02-24T23:16:38.019Z,1.46
2019-02-24T23:21:43.716Z,1.48
2019-02-24T23:26:49.375Z,1.46
2019-02-24T23:31:55.169Z,1.42
2019-02-24T23:37:02.000Z,1.41
2019-02-24T23:42:07.576Z,1.34
2019-02-24T23:47:13.135Z,1.26
2019-02-24T23:52:19.070Z,1.24
2019-02-24T23:57:29.917Z,1.29
